from: Dec 12 2018 8:05 pm until: Dec 13 2018 5:00 am Special Weather Statement level: Minor
Minimal threat to life or property - Responsive action SHOULD be taken soon (within next hour)
...PATCHY BLACK ICE EXPECTED LATE TONIGHT AND EARLY THURSDAY MORNING... As temperatures drop below freezing late this evening, any water running off from recent snow melt may refreeze on area roadways that have not been treated. This could result in patches of black ice late tonight and early Thursday. The temperature should climb

Thunder radar more information blitzortung!


Rain radar more information rain snow radar


Visit our other weather sites:

Template documentation
and downloads

And another site



Nearby METAR Reports

  
KAVL - Asheville Regional Airprot, NC
Distance from station: S 11.7mi, 19km
Updated: Dec 12 2018 8:54 pm
Clear
Clear  
 Wind from calm
Wind: Calm
Temperature:  36°F , 2°C
Dew Point:  25°F , -4°C
Humidity:  65%
Barometer:  30.18 inHg , 1022 hPa
Clouds:  Clear
Visibility:   10 miles , 16 km
2018/12/13 01:54 KAVL 130154Z 00000KT 10SM CLR 02/M04 A3018 RMK AO2 SLP229 T00171039
KGSP - Greer (GSP Airport) SC USA
Distance from station: SSE 52mi, 84km
Updated: Dec 12 2018 8:53 pm
Clear
Clear  
 Wind from calm
Wind: Calm
Temperature:  37°F , 3°C
Dew Point:  30°F , -1°C
Humidity:  75%
Barometer:  30.21 inHg , 1023 hPa
Clouds:  Clear
Visibility:   10 miles , 16 km
2018/12/13 01:53 KGSP 130153Z 00000KT 10SM CLR 03/M01 A3021 RMK AO2 SLP233 T00281006
KCLT - Charlotte, NC USA
Distance from station: ESE 92mi, 149km
Updated: Dec 12 2018 8:52 pm
Overcast
Overcast  
 Wind from S
Wind: S 7 mph , 11 km/h
Temperature:  43°F , 6°C
Wind Chill:  39°F , 4°C
Dew Point:  32°F , 0°C
Humidity:  66%
Barometer:  30.21 inHg , 1023 hPa
Clouds:  Overcast
Visibility:   10 miles , 16 km
Cloud details:  Overcast 20000 ft
2018/12/13 01:52 KCLT 130152Z 19006KT 10SM OVC200 06/00 A3021 RMK AO2 SLP232 T00610000
KRHP - Andrews, Andrews-Murphy Airport, NC, USA
Distance from station: WSW 81mi, 130km
Updated: Dec 12 2018 9:40 pm
Clear
Clear  
 Wind from calm
Wind: Calm
Temperature:  32°F , 0°C
Dew Point:  30°F , -1°C
Humidity:  93%
Barometer:  30.19 inHg , 1022.4 hPa
Clouds:  Clear
Visibility:   10 miles , 16 km
2018/12/13 02:40 KRHP 130240Z AUTO 00000KT 10SM CLR 00/M01 A3019 RMK AO2 T10051015
KHKY - Hickory Reginal Airport, NC, USA
Distance from station: E 65mi, 104km
Updated: Dec 12 2018 8:53 pm
Clear
Clear  
 Wind from calm
Wind: Calm
Temperature:  37°F , 3°C
Dew Point:  25°F , -4°C
Humidity:  60%
Barometer:  30.18 inHg , 1022 hPa
Clouds:  Clear
Visibility:   10 miles , 16 km
2018/12/13 01:53 KHKY 130153Z AUTO 00000KT 10SM CLR 03/M04 A3018 RMK AO2 SLP217 T00331044
KEHO - Shelby Municipal Airport, NC, USA
Distance from station: ESE 60mi, 96km
Updated: Dec 12 2018 9:40 pm
Clear
Clear  
 Wind from calm
Wind: Calm
Temperature:  36°F , 2°C
Dew Point:  28°F , -2°C
Humidity:  75%
Barometer:  30.21 inHg , 1023 hPa
Clouds:  Clear
Visibility:   10 miles , 16 km
2018/12/13 02:40 KEHO 130240Z AUTO 00000KT 10SM CLR 02/M02 A3021 RMK AO2 T00241019
KATL - Atlanta, De Kalb-Peachtree Airport, GA, USA
Distance from station: SSW 172mi, 237km
Updated: Dec 12 2018 8:52 pm
Mostly Cloudy
Mostly Cloudy  
 Wind from SW
Wind: SW 3 mph , 6 km/h
Temperature:  45°F , 7°C
Dew Point:  28°F , -2°C
Humidity:  53%
Barometer:  30.21 inHg , 1023 hPa
Clouds:  Mostly Cloudy
Visibility:   10 miles , 16 km
Cloud details:  Few Clouds 15000 ft
Partly Cloudy 20000 ft
Mostly Cloudy 25000 ft
2018/12/13 01:52 KATL 130152Z 23003KT 10SM FEW150 SCT200 BKN250 07/M02 A3021 RMK AO2 SLP236 T00721022
KTYS - Knoxville, McGhee Tyson Airport, TN, USA
Distance from station: WNW 80mi, 130km
Updated: Dec 12 2018 8:53 pm
Mostly Cloudy
Mostly Cloudy  
 Wind from WSW
Wind: WSW 8 mph , 13 km/h
Temperature:  45°F , 7°C
Wind Chill:  41°F , 5°C
Dew Point:  30°F , -1°C
Humidity:  57%
Barometer:  30.13 inHg , 1020.3 hPa
Clouds:  Mostly Cloudy
Visibility:   10 miles , 16 km
Cloud details:  Partly Cloudy 4300 ft
Mostly Cloudy 6000 ft
Mostly Cloudy 15000 ft
2018/12/13 01:53 KTYS 130153Z 25007KT 10SM SCT043 BKN060 BKN150 07/M01 A3013 RMK AO2 SLP208 T00671011
KRDU - Durham, Raleigh-Durham Airport, NC USA
Distance from station: E 205mi, 330km
Updated: Dec 12 2018 8:51 pm
Overcast
Overcast  
 Wind from S
Wind: S 5 mph , 7 km/h
Temperature:  41°F , 5°C
Wind Chill:  38°F , 3°C
Dew Point:  28°F , -2°C
Humidity:  61%
Barometer:  30.23 inHg , 1023.7 hPa
Clouds:  Overcast
Visibility:   10 miles , 16 km
Cloud details:  Mostly Cloudy 17000 ft
Overcast 25000 ft
2018/12/13 01:51 KRDU 130151Z 17004KT 10SM BKN170 OVC250 05/M02 A3023 RMK AO2 SLP238 T00501017 $
 

Script developed by  Saratoga-weather.org Adapted for the template by  Weerstation Leuven

You find our weather info also at:


Weather Underground

AWEKAS

Citizen Weather Observer Program (CWOP)

HAMweather, WeatherForYou, PWS Weather

Equipment we use:


Weather-station
Davis VP2

Weather-program
Weather Display

Weather-server
Dell Poweredge SC420

Provider
1&1

Davis VP2

Weather Display

Dell Poweredge SC420

1&1